Time;durP1;ratioP1;P1;durP2;ratioP2;P2;SDS_P1;SDS_P2;PMS_P1;PMS_P2;Temp;Humidity;BMP_temperature;BMP_pressure;BME280_temperature;BME280_humidity;BME280_pressure;Samples;Min_cycle;Max_cycle;Signal;HPM_P1;HPM_P2
2023/08/23 00:00:54;;;;;;;4.17;3.77;;;;;;;25.79;nan;99683.63;5003165;28;20849;-76
2023/08/23 00:03:19;;;;;;;4.17;3.43;;;;;;;25.77;nan;99677.59;5004816;28;20641;-79
2023/08/23 00:05:45;;;;;;;5.13;3.90;;;;;;;25.78;nan;99676.56;5009316;28;20449;-78
2023/08/23 00:08:10;;;;;;;5.37;3.33;;;;;;;25.76;nan;99672.41;5007076;28;20230;-76
2023/08/23 00:10:36;;;;;;;6.43;3.27;;;;;;;25.70;nan;99682.06;5012694;28;20289;-76
2023/08/23 00:13:01;;;;;;;4.47;3.50;;;;;;;25.66;nan;99678.13;4996106;28;20206;-76
2023/08/23 00:15:26;;;;;;;3.60;3.00;;;;;;;25.65;nan;99675.63;5012570;28;20409;-76
2023/08/23 00:17:52;;;;;;;4.47;3.33;;;;;;;25.62;nan;99682.22;5006974;28;20392;-80
2023/08/23 00:20:17;;;;;;;5.27;4.03;;;;;;;25.58;nan;99686.34;5007621;28;20202;-76
2023/08/23 00:22:43;;;;;;;5.43;3.60;;;;;;;25.53;nan;99694.16;5006567;28;20236;-76
2023/08/23 00:25:08;;;;;;;5.37;3.73;;;;;;;25.50;nan;99694.53;5007404;28;20276;-79
2023/08/23 00:27:34;;;;;;;6.40;4.10;;;;;;;25.51;nan;99698.88;5008411;28;20267;-79
2023/08/23 00:29:59;;;;;;;4.37;3.73;;;;;;;25.50;nan;99689.97;5009220;28;20748;-76
2023/08/23 00:32:26;;;;;;;4.40;4.00;;;;;;;25.50;nan;99683.78;5006686;28;20610;-79
2023/08/23 00:34:51;;;;;;;4.90;4.40;;;;;;;25.50;nan;99667.63;5009156;28;20914;-77
2023/08/23 00:37:17;;;;;;;3.87;3.57;;;;;;;25.49;nan;99672.19;5010208;28;20279;-78
2023/08/23 00:39:43;;;;;;;4.33;3.87;;;;;;;25.48;nan;99667.81;4998283;28;20209;-79
2023/08/23 00:42:10;;;;;;;4.43;3.47;;;;;;;25.47;nan;99668.84;5007526;28;20197;-77
2023/08/23 00:44:35;;;;;;;5.60;5.10;;;;;;;25.44;nan;99679.16;5009365;28;20450;-76
2023/08/23 00:47:01;;;;;;;5.27;4.57;;;;;;;25.36;nan;99674.75;4990472;28;20468;-79
2023/08/23 00:49:33;;;;;;;4.60;3.77;;;;;;;25.31;nan;99675.31;4990943;28;20211;-75
2023/08/23 00:52:00;;;;;;;4.03;3.63;;;;;;;25.30;nan;99679.03;5005535;28;20211;-79
2023/08/23 00:54:25;;;;;;;8.30;4.77;;;;;;;25.32;nan;99679.66;4994712;28;20736;-76
2023/08/23 00:56:52;;;;;;;4.27;3.87;;;;;;;25.33;nan;99683.19;4978715;28;20499;-76
2023/08/23 00:59:18;;;;;;;4.30;3.90;;;;;;;25.30;nan;99689.78;4991705;28;20783;-79
2023/08/23 01:01:43;;;;;;;5.53;5.00;;;;;;;25.27;nan;99681.25;4994919;28;20211;-76
2023/08/23 01:04:08;;;;;;;5.23;4.10;;;;;;;25.23;nan;99694.25;4990205;28;20210;-76
2023/08/23 01:06:58;;;;;;;5.90;4.60;;;;;;;25.16;nan;99687.97;4996394;28;20292;-78
2023/08/23 01:09:35;;;;;;;7.60;4.13;;;;;;;25.04;nan;99689.47;4978842;28;20191;-76
2023/08/23 01:12:12;;;;;;;8.90;4.87;;;;;;;24.94;nan;99690.59;4993517;28;20445;-79
2023/08/23 01:15:02;;;;;;;5.90;4.67;;;;;;;24.90;nan;99694.69;4974918;28;20469;-77
2023/08/23 01:17:31;;;;;;;4.93;3.30;;;;;;;24.89;nan;99684.94;4986996;28;20825;-76
2023/08/23 01:19:57;;;;;;;4.37;3.70;;;;;;;24.88;nan;99683.28;4993281;28;21263;-77
2023/08/23 01:22:23;;;;;;;4.23;3.57;;;;;;;24.86;nan;99692.56;4992403;28;20452;-77
2023/08/23 01:24:49;;;;;;;5.80;4.27;;;;;;;24.82;nan;99691.28;4966949;28;20802;-76
2023/08/23 01:27:16;;;;;;;4.63;3.60;;;;;;;24.81;nan;99690.44;4994804;28;20210;-79
2023/08/23 01:29:44;;;;;;;4.23;3.40;;;;;;;24.79;nan;99692.50;4975064;28;20513;-79
2023/08/23 01:32:20;;;;;;;5.37;4.90;;;;;;;24.79;nan;99687.13;4976225;28;20457;-77
2023/08/23 01:34:51;;;;;;;4.60;3.90;;;;;;;24.79;nan;99692.50;4976349;28;20454;-75
2023/08/23 01:37:19;;;;;;;5.03;4.47;;;;;;;24.80;nan;99694.16;4990642;28;20529;-77
2023/08/23 01:39:45;;;;;;;6.07;3.57;;;;;;;24.77;nan;99689.16;4992316;28;20208;-76
2023/08/23 01:42:10;;;;;;;4.70;3.43;;;;;;;24.75;nan;99693.03;4988358;28;20528;-78
2023/08/23 01:44:36;;;;;;;5.80;3.97;;;;;;;24.75;nan;99693.88;4975432;28;20203;-76
2023/08/23 01:47:01;;;;;;;4.70;3.47;;;;;;;24.77;nan;99683.78;4988781;28;20248;-77
2023/08/23 01:49:27;;;;;;;5.13;3.20;;;;;;;24.75;nan;99696.56;4992710;28;20378;-76
2023/08/23 01:51:53;;;;;;;7.17;3.57;;;;;;;24.69;nan;99698.13;4977966;28;20646;-76
2023/08/23 01:54:18;;;;;;;6.23;3.63;;;;;;;24.64;nan;99699.72;4994733;28;20206;-76
2023/08/23 01:56:44;;;;;;;3.60;3.30;;;;;;;24.60;nan;99682.31;4995325;28;20210;-78
2023/08/23 01:59:10;;;;;;;4.90;3.20;;;;;;;24.60;nan;99683.16;4996808;28;20203;-76
2023/08/23 02:01:35;;;;;;;3.50;3.13;;;;;;;24.62;nan;99691.84;5000964;28;20839;-76
2023/08/23 02:04:00;;;;;;;3.30;3.07;;;;;;;24.60;nan;99684.97;4995189;28;20796;-77
2023/08/23 02:06:26;;;;;;;4.60;3.60;;;;;;;24.54;nan;99678.50;4981254;28;20935;-78
2023/08/23 02:08:51;;;;;;;3.63;3.33;;;;;;;24.49;nan;99681.78;4984276;28;20206;-76
2023/08/23 02:11:17;;;;;;;3.27;2.97;;;;;;;24.46;nan;99686.66;4997807;28;20297;-78
2023/08/23 02:13:42;;;;;;;6.40;3.40;;;;;;;24.46;nan;99698.22;4998887;28;20231;-76
2023/08/23 02:16:07;;;;;;;6.33;3.23;;;;;;;24.45;nan;99701.94;5001708;28;20555;-76
2023/08/23 02:18:33;;;;;;;3.70;3.07;;;;;;;24.45;nan;99696.56;4966531;28;20423;-78
2023/08/23 02:20:59;;;;;;;4.20;3.10;;;;;;;24.44;nan;99699.47;4976970;28;20462;-76
2023/08/23 02:23:25;;;;;;;3.10;2.90;;;;;;;24.40;nan;99704.31;4978715;28;20286;-76
2023/08/23 02:25:52;;;;;;;5.53;3.40;;;;;;;24.38;nan;99690.25;4986318;28;20867;-77
2023/08/23 02:28:18;;;;;;;3.37;2.83;;;;;;;24.36;nan;99681.56;4980273;28;20475;-76
2023/08/23 02:30:44;;;;;;;3.80;3.20;;;;;;;24.29;nan;99681.44;4996005;28;21044;-76
2023/08/23 02:33:09;;;;;;;4.93;3.60;;;;;;;24.26;nan;99691.72;4996342;28;20460;-77
2023/08/23 02:35:39;;;;;;;4.03;3.10;;;;;;;24.25;nan;99698.97;4995890;28;20444;-76
2023/08/23 02:38:08;;;;;;;4.23;3.80;;;;;;;24.24;nan;99704.50;4996544;28;20376;-76
2023/08/23 02:40:33;;;;;;;3.20;2.90;;;;;;;24.22;nan;99698.47;5000431;28;20452;-76
2023/08/23 02:42:59;;;;;;;3.93;3.43;;;;;;;24.22;nan;99703.84;4994972;28;20455;-78
2023/08/23 02:45:24;;;;;;;4.70;3.40;;;;;;;24.23;nan;99705.53;4992916;28;20202;-76
2023/08/23 02:47:51;;;;;;;5.60;3.30;;;;;;;24.23;nan;99706.34;4982507;28;20209;-76
2023/08/23 02:50:17;;;;;;;3.73;3.43;;;;;;;24.21;nan;99699.50;4973137;28;21032;-76
2023/08/23 02:52:42;;;;;;;6.40;3.60;;;;;;;24.20;nan;99700.53;4982845;28;20500;-76
2023/08/23 02:55:08;;;;;;;3.90;3.60;;;;;;;24.16;nan;99697.34;4981195;28;20207;-77
2023/08/23 02:57:33;;;;;;;4.10;3.40;;;;;;;24.16;nan;99708.09;4975911;28;20210;-76
2023/08/23 02:59:59;;;;;;;4.40;3.07;;;;;;;24.14;nan;99701.25;4978404;28;20199;-79
2023/08/23 03:02:24;;;;;;;3.87;3.23;;;;;;;24.11;nan;99702.44;4973886;28;20212;-76
2023/08/23 03:04:49;;;;;;;7.77;3.17;;;;;;;24.10;nan;99697.28;4974344;28;20694;-77
2023/08/23 03:07:15;;;;;;;3.67;2.93;;;;;;;24.07;nan;99696.63;4981419;28;20211;-79
2023/08/23 03:09:42;;;;;;;4.67;3.40;;;;;;;24.03;nan;99706.06;4991918;28;20364;-77
2023/08/23 03:12:07;;;;;;;5.43;3.53;;;;;;;23.98;nan;99702.22;5000347;28;20580;-76
2023/08/23 03:14:33;;;;;;;4.43;3.47;;;;;;;23.93;nan;99692.06;4988796;28;20560;-78
2023/08/23 03:16:58;;;;;;;4.80;3.80;;;;;;;23.89;nan;99690.75;4978100;28;20203;-76
2023/08/23 03:19:24;;;;;;;8.10;3.80;;;;;;;23.87;nan;99690.09;4977020;28;20602;-76
2023/08/23 03:21:49;;;;;;;4.87;4.37;;;;;;;23.86;nan;99691.13;4995052;28;20205;-78
2023/08/23 03:24:14;;;;;;;4.90;4.50;;;;;;;23.84;nan;99682.41;4979753;28;20632;-76
2023/08/23 03:26:40;;;;;;;11.00;4.27;;;;;;;23.87;nan;99681.22;4975395;28;20273;-78
2023/08/23 03:29:06;;;;;;;6.10;5.70;;;;;;;23.86;nan;99685.75;4983731;28;20538;-77
2023/08/23 03:31:31;;;;;;;4.87;3.83;;;;;;;23.87;nan;99681.22;4979841;28;20227;-75
2023/08/23 03:33:57;;;;;;;4.50;4.03;;;;;;;23.85;nan;99687.59;4980669;28;20202;-76
2023/08/23 03:36:24;;;;;;;4.93;4.30;;;;;;;23.86;nan;99688.44;4977893;28;20499;-77
2023/08/23 03:38:49;;;;;;;6.33;4.53;;;;;;;23.83;nan;99686.13;4994159;28;20543;-78
2023/08/23 03:41:15;;;;;;;4.80;4.40;;;;;;;23.80;nan;99683.81;4995481;28;20402;-76
2023/08/23 03:43:40;;;;;;;4.20;3.90;;;;;;;23.78;nan;99685.81;4983157;28;20502;-79
2023/08/23 03:46:06;;;;;;;7.77;3.77;;;;;;;23.77;nan;99686.84;4982525;28;20236;-76
2023/08/23 03:48:32;;;;;;;5.73;4.00;;;;;;;;;;5001469;28;20219;-79
2023/08/23 03:51:07;;;;;;;4.80;4.40;;;;;;;23.73;nan;99682.84;4993739;28;20310;-79
2023/08/23 03:53:32;;;;;;;5.53;5.03;;;;;;;23.72;nan;99686.56;5013958;28;20483;-76
2023/08/23 03:55:58;;;;;;;4.93;4.40;;;;;;;23.65;nan;99681.03;5009079;28;20465;-78
2023/08/23 03:58:24;;;;;;;5.33;4.93;;;;;;;23.58;nan;99682.78;5013496;28;20545;-78
2023/08/23 04:00:53;;;;;;;4.33;4.00;;;;;;;23.51;nan;99688.00;4995509;28;20208;-78
2023/08/23 04:03:19;;;;;;;4.80;4.30;;;;;;;23.48;nan;99691.06;5000789;28;20665;-79
2023/08/23 04:05:44;;;;;;;6.50;5.13;;;;;;;23.49;nan;99682.00;5002332;28;21014;-79
2023/08/23 04:08:10;;;;;;;4.93;3.70;;;;;;;23.50;nan;99681.00;5002929;28;20209;-79
2023/08/23 04:10:36;;;;;;;5.00;4.50;;;;;;;23.53;nan;99688.69;5006258;28;20455;-79
2023/08/23 04:13:02;;;;;;;4.97;4.43;;;;;;;23.53;nan;99686.00;4994346;28;20578;-78
2023/08/23 04:15:27;;;;;;;4.80;4.40;;;;;;;23.53;nan;99680.63;5006676;28;20964;-78
2023/08/23 04:17:53;;;;;;;4.10;3.70;;;;;;;23.49;nan;99678.47;4999170;28;20206;-78
2023/08/23 04:20:19;;;;;;;5.27;4.87;;;;;;;23.42;nan;99679.22;5011870;28;20663;-78
2023/08/23 04:22:44;;;;;;;8.33;5.00;;;;;;;23.36;nan;99681.78;5012241;28;20932;-79
2023/08/23 04:25:11;;;;;;;6.60;4.53;;;;;;;23.30;nan;99680.63;4999874;28;20684;-79
2023/08/23 04:27:36;;;;;;;6.33;5.70;;;;;;;23.29;nan;99688.84;4991578;28;20549;-79
2023/08/23 04:30:06;;;;;;;5.93;5.33;;;;;;;23.29;nan;99686.19;4985788;28;20830;-79
2023/08/23 04:32:32;;;;;;;6.40;5.80;;;;;;;23.27;nan;99689.03;4987341;28;20571;-78
2023/08/23 04:34:58;;;;;;;6.93;5.37;;;;;;;23.25;nan;99692.88;5012633;28;20946;-78
2023/08/23 04:37:24;;;;;;;5.33;4.83;;;;;;;23.26;nan;99691.91;5012164;28;20552;-79
2023/08/23 04:39:49;;;;;;;5.33;4.90;;;;;;;23.25;nan;99690.22;4998139;28;20210;-79
2023/08/23 04:42:15;;;;;;;6.00;5.40;;;;;;;23.23;nan;99686.91;5014871;28;20190;-78
2023/08/23 04:44:40;;;;;;;6.73;6.00;;;;;;;23.23;nan;99685.03;5014086;28;20668;-79
2023/08/23 04:47:06;;;;;;;5.50;5.10;;;;;;;23.23;nan;99689.56;5017989;28;20211;-79
2023/08/23 04:49:32;;;;;;;5.03;4.53;;;;;;;23.23;nan;99693.09;5004292;28;20415;-79
2023/08/23 04:51:58;;;;;;;5.13;4.73;;;;;;;23.25;nan;99688.38;4986196;28;20477;-79
2023/08/23 04:54:24;;;;;;;6.27;5.27;;;;;;;23.26;nan;99692.72;4968289;28;20323;-82
2023/08/23 04:56:50;;;;;;;6.80;5.47;;;;;;;23.28;nan;99693.38;4971366;28;20504;-82
2023/08/23 04:59:15;;;;;;;6.10;5.43;;;;;;;23.30;nan;99701.22;4986829;28;20235;-83
2023/08/23 05:01:41;;;;;;;7.03;6.33;;;;;;;23.31;nan;99697.56;4983098;28;20207;-81
2023/08/23 05:04:07;;;;;;;7.20;6.27;;;;;;;23.34;nan;99697.19;4984126;28;20389;-81
2023/08/23 05:06:35;;;;;;;6.77;6.10;;;;;;;23.39;nan;99697.50;4983577;28;20520;-82
2023/08/23 05:09:00;;;;;;;6.23;5.07;;;;;;;23.46;nan;99711.00;4986495;28;20987;-83
2023/08/23 05:11:27;;;;;;;6.53;5.93;;;;;;;23.50;nan;99706.97;4982554;28;20554;-83
2023/08/23 05:13:52;;;;;;;7.70;5.93;;;;;;;23.52;nan;99708.47;5001117;28;21013;-83
2023/08/23 05:16:18;;;;;;;6.23;5.63;;;;;;;23.60;nan;99703.03;4983271;28;20213;-82
2023/08/23 05:18:44;;;;;;;5.77;5.20;;;;;;;23.79;nan;99701.75;4997199;28;20215;-82
2023/08/23 05:21:14;;;;;;;7.93;6.17;;;;;;;24.03;nan;99703.38;4993878;28;20485;-83
2023/08/23 05:23:40;;;;;;;6.90;6.23;;;;;;;24.26;nan;99707.84;4993749;28;20571;-82
2023/08/23 05:26:06;;;;;;;6.47;5.87;;;;;;;24.43;nan;99706.63;4973124;28;20235;-81
2023/08/23 05:28:32;;;;;;;6.60;6.00;;;;;;;24.61;nan;99705.47;4969108;28;20536;-82
2023/08/23 05:30:58;;;;;;;7.60;5.40;;;;;;;24.79;nan;99699.69;4957561;28;20203;-82
2023/08/23 05:33:26;;;;;;;7.00;6.40;;;;;;;24.95;nan;99702.16;4995854;28;20430;-81
2023/08/23 05:35:52;;;;;;;6.40;5.80;;;;;;;25.12;nan;99705.47;4979322;28;20461;-82
2023/08/23 05:38:19;;;;;;;6.77;5.90;;;;;;;25.35;nan;99703.47;4996774;28;20596;-82
2023/08/23 05:40:45;;;;;;;8.93;6.20;;;;;;;25.64;nan;99707.06;4976504;28;20203;-82
2023/08/23 05:43:11;;;;;;;7.23;6.53;;;;;;;25.72;nan;99698.88;4978952;28;20465;-82
2023/08/23 05:45:37;;;;;;;7.23;6.00;;;;;;;25.72;nan;99698.88;4998537;28;20492;-82
2023/08/23 05:48:02;;;;;;;8.60;6.57;;;;;;;25.78;nan;99703.47;4980366;28;20206;-83
2023/08/23 05:50:28;;;;;;;8.37;7.57;;;;;;;25.85;nan;99708.13;4979755;28;20205;-82
2023/08/23 05:52:53;;;;;;;8.50;7.30;;;;;;;25.80;nan;99705.97;4978891;28;20230;-82
2023/08/23 05:55:19;;;;;;;7.93;7.00;;;;;;;25.74;nan;99704.91;4995478;28;20271;-82
2023/08/23 05:57:44;;;;;;;9.70;7.37;;;;;;;25.74;nan;99707.59;4991363;28;20202;-81
2023/08/23 06:00:11;;;;;;;8.87;7.97;;;;;;;25.72;nan;99701.56;4995788;28;20718;-82
2023/08/23 06:02:39;;;;;;;8.23;6.80;;;;;;;25.68;nan;99716.44;4999477;28;20560;-83
2023/08/23 06:05:10;;;;;;;7.10;6.50;;;;;;;25.67;nan;99709.38;4989649;28;20457;-82
2023/08/23 06:07:36;;;;;;;8.63;7.93;;;;;;;25.66;nan;99714.97;4992925;28;20349;-82
2023/08/23 06:10:01;;;;;;;10.77;7.37;;;;;;;25.79;nan;99715.91;4994750;28;20831;-82
2023/08/23 06:12:27;;;;;;;11.50;7.20;;;;;;;26.17;nan;99714.78;4990916;28;20644;-82
2023/08/23 06:14:54;;;;;;;7.70;6.90;;;;;;;26.66;nan;99712.00;4996106;28;20191;-82
2023/08/23 06:17:19;;;;;;;6.10;5.50;;;;;;;27.14;nan;99717.38;5001888;28;20932;-81
2023/08/23 06:19:45;;;;;;;7.97;6.93;;;;;;;27.62;nan;99715.63;4996346;28;20860;-83
2023/08/23 06:22:13;;;;;;;6.80;6.20;;;;;;;28.09;nan;99711.94;4996807;28;20550;-82
2023/08/23 06:24:38;;;;;;;7.00;6.30;;;;;;;28.45;nan;99711.50;4998160;28;20842;-81
2023/08/23 06:27:04;;;;;;;7.57;6.97;;;;;;;28.68;nan;99707.50;4998503;28;20458;-82
2023/08/23 06:29:29;;;;;;;10.80;7.10;;;;;;;28.92;nan;99700.50;4994730;28;20199;-82
2023/08/23 06:31:58;;;;;;;7.83;7.23;;;;;;;29.11;nan;99710.44;4997304;28;20210;-82
2023/08/23 06:34:23;;;;;;;7.47;6.77;;;;;;;29.26;nan;99710.16;5000607;28;20641;-82
2023/08/23 06:36:49;;;;;;;7.23;6.53;;;;;;;29.37;nan;99707.81;4999591;28;20998;-82
2023/08/23 06:39:14;;;;;;;7.93;7.17;;;;;;;29.47;nan;99708.16;4995215;28;20998;-80
2023/08/23 06:41:39;;;;;;;6.40;5.90;;;;;;;29.52;nan;99702.94;5000686;28;20248;-82
2023/08/23 06:44:05;;;;;;;8.60;7.23;;;;;;;29.68;nan;99709.72;5003246;28;20808;-82
2023/08/23 06:46:30;;;;;;;8.03;6.27;;;;;;;29.88;nan;99715.78;5004737;28;20262;-82
2023/08/23 06:48:56;;;;;;;8.13;6.47;;;;;;;30.11;nan;99711.63;4993860;28;20300;-82
2023/08/23 06:51:27;;;;;;;7.83;6.93;;;;;;;30.29;nan;99713.56;5002818;28;20317;-82
2023/08/23 06:53:53;;;;;;;7.73;7.00;;;;;;;30.36;nan;99715.16;5006604;28;20226;-83
2023/08/23 06:56:18;;;;;;;7.93;6.87;;;;;;;30.19;nan;99712.19;5004447;28;20460;-82
2023/08/23 06:58:44;;;;;;;7.30;6.50;;;;;;;29.73;nan;99708.00;4997043;28;20195;-81
2023/08/23 07:01:14;;;;;;;10.50;6.90;;;;;;;29.22;nan;99718.91;5007200;28;20194;-82
2023/08/23 07:03:44;;;;;;;9.83;8.93;;;;;;;28.63;nan;99713.53;5003065;28;20195;-81
2023/08/23 07:06:11;;;;;;;9.73;8.80;;;;;;;28.15;nan;99721.09;5011025;28;20461;-82
2023/08/23 07:08:37;;;;;;;8.20;7.40;;;;;;;27.77;nan;99722.50;5005644;28;20710;-82
2023/08/23 07:11:03;;;;;;;8.97;8.07;;;;;;;27.54;nan;99719.34;5008165;28;20555;-81
2023/08/23 07:13:29;;;;;;;8.53;7.53;;;;;;;27.43;nan;99728.88;4993052;28;20214;-81
2023/08/23 07:15:55;;;;;;;8.40;7.70;;;;;;;27.35;nan;99723.69;4987018;28;20488;-80
2023/08/23 07:18:20;;;;;;;8.63;7.93;;;;;;;27.52;nan;99719.59;4997659;28;20458;-82
2023/08/23 07:20:46;;;;;;;8.33;7.70;;;;;;;27.99;nan;99716.94;5003264;28;20573;-81
2023/08/23 07:23:11;;;;;;;8.37;7.57;;;;;;;28.50;nan;99718.97;5006680;28;20195;-81
2023/08/23 07:25:36;;;;;;;11.67;7.57;;;;;;;28.97;nan;99713.38;5006539;28;20191;-81
2023/08/23 07:28:02;;;;;;;8.33;7.53;;;;;;;29.38;nan;99720.28;5000564;28;20211;-81
2023/08/23 07:30:29;;;;;;;7.87;7.23;;;;;;;29.62;nan;99713.25;5006340;28;20501;-82
2023/08/23 07:32:56;;;;;;;8.67;7.87;;;;;;;29.88;nan;99720.38;5005798;28;20585;-81
2023/08/23 07:35:21;;;;;;;8.17;7.37;;;;;;;30.26;nan;99716.72;5008420;28;20438;-81
2023/08/23 07:37:47;;;;;;;8.00;7.30;;;;;;;30.75;nan;99712.22;5005558;28;20464;-82
2023/08/23 07:40:12;;;;;;;8.20;7.40;;;;;;;31.16;nan;99716.13;5005957;28;20436;-82
2023/08/23 07:42:38;;;;;;;7.70;6.90;;;;;;;31.38;nan;99719.16;5000794;28;20572;-79
2023/08/23 07:45:04;;;;;;;8.93;6.83;;;;;;;31.64;nan;99717.94;5006412;28;20788;-81
2023/08/23 07:47:29;;;;;;;11.93;6.93;;;;;;;31.81;nan;99718.94;5008682;28;20211;-81
2023/08/23 07:49:54;;;;;;;9.60;7.40;;;;;;;32.00;nan;99724.28;5013662;28;20539;-82
2023/08/23 07:52:20;;;;;;;7.50;6.57;;;;;;;32.07;nan;99717.69;5015967;28;20214;-68
2023/08/23 07:54:48;;;;;;;6.97;6.33;;;;;;;32.36;nan;99724.06;5018095;28;20236;-81
2023/08/23 07:57:13;;;;;;;10.00;6.80;;;;;;;32.65;nan;99724.19;5015047;28;20210;-81
2023/08/23 07:59:40;;;;;;;7.07;6.43;;;;;;;32.82;nan;99727.78;5016959;28;20501;-81
2023/08/23 08:02:06;;;;;;;8.27;7.30;;;;;;;32.69;nan;99724.53;5005496;28;20532;-82
2023/08/23 08:04:32;;;;;;;7.57;6.87;;;;;;;32.28;nan;99727.13;5021414;28;20876;-81
2023/08/23 08:06:57;;;;;;;7.83;7.23;;;;;;;31.79;nan;99726.50;5024097;28;20469;-81
2023/08/23 08:09:23;;;;;;;7.90;7.10;;;;;;;31.50;nan;99729.00;5022778;28;20813;-81
2023/08/23 08:11:48;;;;;;;8.80;8.00;;;;;;;31.51;nan;99729.84;5015902;28;20212;-81
2023/08/23 08:14:14;;;;;;;7.43;6.70;;;;;;;31.65;nan;99719.59;5017014;28;20289;-82
2023/08/23 08:16:39;;;;;;;7.67;7.00;;;;;;;31.85;nan;99720.13;5021656;28;20218;-82
2023/08/23 08:19:05;;;;;;;13.97;7.63;;;;;;;32.07;nan;99716.84;5024077;28;20199;-82
2023/08/23 08:21:30;;;;;;;14.17;8.00;;;;;;;32.25;nan;99722.19;5023910;28;20206;-82
2023/08/23 08:23:56;;;;;;;10.50;8.10;;;;;;;32.54;nan;99720.41;5021847;28;20211;-82
2023/08/23 08:26:21;;;;;;;9.77;7.60;;;;;;;32.61;nan;99726.53;5018315;28;20249;-82
2023/08/23 08:28:47;;;;;;;7.40;6.70;;;;;;;32.70;nan;99726.97;5024708;28;20733;-82
2023/08/23 08:31:13;;;;;;;7.53;6.73;;;;;;;32.98;nan;99728.13;5021832;28;20202;-82
2023/08/23 08:33:39;;;;;;;7.07;6.37;;;;;;;33.21;nan;99733.47;5022992;28;20611;-82
2023/08/23 08:36:04;;;;;;;8.20;7.40;;;;;;;33.30;nan;99722.19;5024049;28;20441;-82
2023/08/23 08:38:33;;;;;;;7.77;6.93;;;;;;;33.26;nan;99728.13;5026324;28;20297;-82
2023/08/23 08:40:59;;;;;;;10.73;7.03;;;;;;;33.14;nan;99724.66;5021677;28;20204;-81
2023/08/23 08:43:25;;;;;;;9.80;7.17;;;;;;;33.07;nan;99720.41;5022558;28;20548;-83
2023/08/23 08:45:50;;;;;;;7.17;6.60;;;;;;;32.99;nan;99721.59;4999891;28;20476;-82
2023/08/23 08:48:16;;;;;;;8.60;7.80;;;;;;;32.82;nan;99729.69;5016059;28;20472;-80
2023/08/23 08:50:44;;;;;;;9.23;7.50;;;;;;;32.63;nan;99728.22;5017248;28;20206;-81
2023/08/23 08:53:15;;;;;;;7.17;6.67;;;;;;;32.30;nan;99725.03;5009573;28;20549;-81
2023/08/23 08:55:41;;;;;;;7.00;6.20;;;;;;;32.03;nan;99724.66;5002097;28;20461;-81
2023/08/23 08:58:08;;;;;;;7.20;6.60;;;;;;;31.85;nan;99719.28;5001330;28;20984;-81
2023/08/23 09:00:35;;;;;;;7.67;6.70;;;;;;;31.75;nan;99720.69;5007860;28;20837;-81
2023/08/23 09:03:00;;;;;;;6.90;6.20;;;;;;;31.75;nan;99717.13;5006886;28;20465;-81
2023/08/23 09:05:27;;;;;;;8.07;6.38;;;;;;;31.76;nan;99721.53;5008177;28;20458;-82
2023/08/23 09:07:54;;;;;;;7.50;6.80;;;;;;;31.69;nan;99716.19;5007024;28;20214;-81
2023/08/23 09:10:22;;;;;;;7.43;6.83;;;;;;;31.66;nan;99713.13;5007301;28;21010;-82
2023/08/23 09:12:47;;;;;;;7.00;6.10;;;;;;;31.63;nan;99713.59;5004105;28;20463;-81
2023/08/23 09:15:13;;;;;;;8.70;6.00;;;;;;;31.73;nan;99713.81;5005574;28;20480;-81
2023/08/23 09:17:38;;;;;;;7.40;6.80;;;;;;;31.84;nan;99713.03;5006790;28;20215;-82
2023/08/23 09:20:10;;;;;;;7.67;6.70;;;;;;;31.88;nan;99722.34;5005840;28;20435;-82
2023/08/23 09:22:36;;;;;;;7.60;6.90;;;;;;;31.94;nan;99713.28;5006428;28;20207;-82
2023/08/23 09:25:05;;;;;;;6.67;6.07;;;;;;;31.96;nan;99707.63;5006017;28;20457;-82
2023/08/23 09:27:31;;;;;;;7.70;6.13;;;;;;;31.95;nan;99703.28;5001634;28;20500;-82
2023/08/23 09:30:03;;;;;;;7.63;7.03;;;;;;;31.88;nan;99705.25;5004150;28;20462;-81
2023/08/23 09:32:29;;;;;;;6.47;5.90;;;;;;;31.90;nan;99711.28;5002975;28;20467;-81
2023/08/23 09:34:55;;;;;;;6.50;6.00;;;;;;;31.91;nan;99705.59;5005527;28;20897;-81
2023/08/23 09:37:23;;;;;;;7.07;6.47;;;;;;;31.85;nan;99703.00;5002759;28;20215;-81
2023/08/23 09:39:48;;;;;;;6.23;5.63;;;;;;;31.90;nan;99706.66;5005977;28;20462;-82
2023/08/23 09:42:14;;;;;;;6.60;5.90;;;;;;;32.01;nan;99709.66;5011899;28;20979;-81
2023/08/23 09:44:43;;;;;;;7.37;6.77;;;;;;;32.15;nan;99692.88;5013929;28;20217;-82
2023/08/23 09:47:14;;;;;;;6.50;5.90;;;;;;;32.28;nan;99694.53;5009676;28;20215;-81
2023/08/23 09:49:42;;;;;;;7.30;6.60;;;;;;;32.31;nan;99696.75;5011153;28;20456;-82
2023/08/23 09:52:09;;;;;;;6.50;5.90;;;;;;;32.30;nan;99700.56;5014431;28;20472;-82
2023/08/23 09:54:50;;;;;;;12.63;6.37;;;;;;;32.30;nan;99689.69;5015294;28;20495;-79
2023/08/23 09:57:18;;;;;;;8.20;6.27;;;;;;;32.41;nan;99701.59;5006564;28;20503;-79
2023/08/23 09:59:44;;;;;;;6.67;5.97;;;;;;;32.45;nan;99696.50;5008758;28;20618;-79
2023/08/23 10:02:10;;;;;;;6.00;5.50;;;;;;;32.53;nan;99701.59;5007731;28;20460;-78
2023/08/23 10:04:42;;;;;;;6.93;6.10;;;;;;;32.49;nan;99693.13;5008307;28;20902;-79
2023/08/23 10:07:08;;;;;;;7.10;6.50;;;;;;;32.54;nan;99693.22;5009217;28;20954;-78
2023/08/23 10:09:35;;;;;;;8.50;6.60;;;;;;;32.57;nan;99706.34;5008601;28;20479;-79
2023/08/23 10:12:04;;;;;;;6.33;5.57;;;;;;;32.67;nan;99702.16;5009350;28;20291;-79
2023/08/23 10:14:33;;;;;;;6.57;5.83;;;;;;;32.63;nan;99692.84;5008034;28;20609;-79
2023/08/23 10:17:02;;;;;;;6.10;5.70;;;;;;;32.60;nan;99697.69;5010149;28;20480;-79
2023/08/23 10:19:28;;;;;;;6.67;6.17;;;;;;;32.53;nan;99697.00;5010230;28;20467;-79
2023/08/23 10:21:54;;;;;;;6.17;5.77;;;;;;;32.54;nan;99689.66;5012739;28;20452;-79
2023/08/23 10:24:27;;;;;;;8.73;6.60;;;;;;;32.66;nan;99693.19;5011048;28;20194;-79
2023/08/23 10:26:52;;;;;;;10.37;6.13;;;;;;;32.55;nan;99694.03;5010663;28;20800;-79
2023/08/23 10:29:28;;;;;;;6.90;6.30;;;;;;;32.49;nan;99686.84;5010163;28;20806;-79
2023/08/23 10:31:54;;;;;;;7.30;5.90;;;;;;;32.53;nan;99686.13;5012315;28;20207;-79
2023/08/23 10:34:39;;;;;;;5.93;5.17;;;;;;;32.64;nan;99687.16;5012335;28;20460;-79
2023/08/23 10:37:18;;;;;;;7.37;5.83;;;;;;;32.79;nan;99687.47;5012871;28;20498;-79
2023/08/23 10:39:52;;;;;;;5.90;5.40;;;;;;;32.97;nan;99691.06;5009338;28;20445;-79
2023/08/23 10:42:18;;;;;;;5.53;5.00;;;;;;;33.09;nan;99685.63;5011428;28;20456;-79
2023/08/23 10:44:57;;;;;;;5.40;4.83;;;;;;;33.15;nan;99680.03;5012787;28;20953;-79
2023/08/23 10:47:23;;;;;;;5.27;4.87;;;;;;;33.14;nan;99677.56;5012000;28;20588;-79
2023/08/23 10:49:50;;;;;;;5.40;4.90;;;;;;;33.19;nan;99686.66;5012408;28;20452;-79
2023/08/23 10:52:15;;;;;;;7.57;5.80;;;;;;;33.34;nan;99680.63;5012660;28;20511;-79
2023/08/23 10:54:41;;;;;;;6.03;5.53;;;;;;;33.41;nan;99672.31;5013067;28;20927;-79
2023/08/23 10:57:07;;;;;;;7.20;5.90;;;;;;;33.47;nan;99677.59;5012276;28;20210;-79
2023/08/23 10:59:33;;;;;;;5.57;5.07;;;;;;;33.53;nan;99678.53;5008038;28;20455;-80
2023/08/23 11:01:58;;;;;;;6.40;5.37;;;;;;;33.52;nan;99676.88;5006898;28;20905;-78
2023/08/23 11:04:25;;;;;;;5.70;5.17;;;;;;;33.50;nan;99673.56;5007996;28;20194;-78
2023/08/23 11:06:51;;;;;;;9.03;5.13;;;;;;;33.41;nan;99672.31;5008977;28;20218;-78
2023/08/23 11:09:17;;;;;;;4.70;4.40;;;;;;;33.36;nan;99680.41;5008133;28;20440;-78
2023/08/23 11:11:43;;;;;;;6.90;5.30;;;;;;;33.31;nan;99670.22;5011337;28;20213;-79
2023/08/23 11:14:08;;;;;;;9.30;5.57;;;;;;;33.31;nan;99672.97;5011614;28;20457;-79
2023/08/23 11:16:35;;;;;;;5.07;4.67;;;;;;;33.38;nan;99672.78;5010013;28;20476;-78
2023/08/23 11:19:02;;;;;;;5.53;5.03;;;;;;;33.34;nan;99667.00;5009654;28;20464;-78
2023/08/23 11:21:27;;;;;;;6.83;4.90;;;;;;;33.28;nan;99676.19;5010269;28;20453;-78
2023/08/23 11:23:53;;;;;;;7.00;4.50;;;;;;;33.26;nan;99678.31;5012394;28;20476;-78
2023/08/23 11:26:18;;;;;;;4.50;4.10;;;;;;;33.24;nan;99677.72;5010196;28;20476;-78
2023/08/23 11:28:44;;;;;;;5.40;4.90;;;;;;;33.29;nan;99683.25;5009011;28;20245;-79
2023/08/23 11:31:09;;;;;;;4.53;4.23;;;;;;;33.39;nan;99677.19;5009895;28;20202;-79
2023/08/23 11:33:38;;;;;;;5.50;5.00;;;;;;;33.32;nan;99676.50;5010384;28;20206;-78
2023/08/23 11:36:04;;;;;;;4.83;4.47;;;;;;;33.21;nan;99673.59;5011621;28;20226;-79
2023/08/23 11:38:31;;;;;;;5.10;4.10;;;;;;;33.13;nan;99665.81;5011361;28;20607;-78
2023/08/23 11:40:57;;;;;;;4.87;4.47;;;;;;;33.09;nan;99672.84;5010407;28;20448;-78
2023/08/23 11:43:31;;;;;;;4.80;4.40;;;;;;;33.10;nan;99676.38;5008736;28;20461;-78
2023/08/23 11:45:56;;;;;;;7.00;4.20;;;;;;;33.09;nan;99672.84;5011399;28;20564;-79
2023/08/23 11:48:23;;;;;;;5.77;5.27;;;;;;;33.12;nan;99676.97;5007839;28;20483;-79